Gulden Leeuw — PCBH — position and weather

sailwx.info

Track history (hours):
 
Tides and Currents Weather Stations Pressure Air Temp Water Temp Dewpoint Dewpoint Depression Visibility Wind Speed Wind Dir Waves Ship Positions

Gulden Leeuw

Last reported at 2019-Sep-22 01:59 UTC. Time now 2019-Sep-22 02:15 UTC.
Position N 38°42' W 009°10'.

Length 57 m; draft 4.2 m.

Type: Sailing vessel. MMSI: 246709000.

Date/timePositionNaut miles runAvg speedWind from/ knotsBaromVisibWave heightAir tempDewpointWater temp
2019-Sep-22 01:59N 38°42' W 009°10'0 0.0
2019-Sep-22 01:29N 38°42' W 009°10'0 0.0
2019-Sep-22 00:59N 38°42' W 009°10'0 0.0
2019-Sep-22 00:29N 38°42' W 009°10'0 0.0
2019-Sep-21 23:59N 38°42' W 009°10'0 0.0
2019-Sep-21 23:29N 38°42' W 009°10'0 0.0
2019-Sep-21 22:59N 38°42' W 009°10'0 0.0
2019-Sep-21 22:29N 38°42' W 009°10'0 0.0
2019-Sep-21 21:59N 38°42' W 009°10'0 0.0
2019-Sep-21 21:29N 38°42' W 009°10'0 0.0
2019-Sep-21 20:59N 38°42' W 009°10'0 0.0
2019-Sep-21 20:29N 38°42' W 009°10'0 0.0
2019-Sep-21 19:59N 38°42' W 009°10'0 0.0
2019-Sep-21 19:29N 38°42' W 009°10'0 0.0
2019-Sep-21 18:53N 38°42' W 009°10'0 0.0
2019-Sep-21 18:29N 38°42' W 009°10'0 0.0
2019-Sep-21 17:59N 38°42' W 009°10'0 0.0
2019-Sep-21 17:29N 38°42' W 009°10'0 0.0
2019-Sep-21 16:59N 38°42' W 009°10'0 0.0
2019-Sep-21 16:29N 38°42' W 009°10'0 0.0
2019-Sep-21 15:59N 38°42' W 009°10'0 0.0
2019-Sep-21 15:29N 38°42' W 009°10'0 0.0
2019-Sep-21 14:59N 38°42' W 009°10'0 0.0
2019-Sep-21 14:30N 38°42' W 009°10'0 0.0
2019-Sep-21 14:00N 38°42' W 009°10'0 0.0
2019-Sep-21 13:30N 38°42' W 009°10'0 0.0
2019-Sep-21 13:00N 38°42' W 009°10'1 1.8
2019-Sep-21 12:30N 38°41' W 009°10'3 6.0
2019-Sep-21 12:00N 38°41' W 009°14'3 6.1
2019-Sep-21 11:30N 38°41' W 009°18'3 6.1
2019-Sep-21 11:00N 38°39' W 009°21'3 5.5
2019-Sep-21 10:30N 38°38' W 009°24'2 4.6
2019-Sep-21 10:00N 38°39' W 009°27'1 2.4
2019-Sep-21 09:30N 38°39' W 009°26'1 2.7
2019-Sep-21 09:00N 38°40' W 009°24'1 1.2
2019-Sep-21 08:30N 38°40' W 009°24'0 0.1
2019-Sep-21 08:00N 38°40' W 009°24'0 0.0
2019-Sep-21 07:30N 38°40' W 009°24'0 0.0
2019-Sep-21 07:00N 38°40' W 009°24'0 0.0
2019-Sep-21 06:30N 38°40' W 009°24'0 0.0
2019-Sep-21 06:00N 38°40' W 009°24'0 0.0
2019-Sep-21 05:30N 38°40' W 009°24'0 0.0
2019-Sep-21 05:00N 38°40' W 009°24'0 0.0
2019-Sep-21 04:27N 38°40' W 009°24'0 0.0
2019-Sep-21 04:00N 38°40' W 009°24'0 0.0
2019-Sep-21 03:30N 38°40' W 009°24'0 0.0
2019-Sep-21 03:00N 38°40' W 009°24'0 0.0
2019-Sep-21 02:30N 38°40' W 009°24'0 0.0
2019-Sep-21 02:00N 38°40' W 009°24'0 0.0
2019-Sep-21 01:30N 38°40' W 009°24'0 0.0
2019-Sep-21 01:00N 38°40' W 009°24'0 0.0
2019-Sep-21 00:30N 38°40' W 009°24'0 0.0
2019-Sep-21 00:00N 38°40' W 009°24'0 0.0
2019-Sep-20 23:30N 38°40' W 009°24'0 0.0
2019-Sep-20 23:00N 38°40' W 009°24'0 0.0
2019-Sep-20 22:30N 38°40' W 009°24'0 0.0
2019-Sep-20 22:00N 38°40' W 009°24'0 0.0
2019-Sep-20 21:30N 38°40' W 009°24'0 0.0
2019-Sep-20 21:00N 38°40' W 009°24'0 0.0
2019-Sep-20 20:30N 38°40' W 009°24'0 0.0
2019-Sep-20 20:00N 38°40' W 009°24'0 0.0
2019-Sep-20 19:30N 38°40' W 009°24'0 0.0
2019-Sep-20 19:00N 38°40' W 009°24'0 0.0
2019-Sep-20 18:30N 38°40' W 009°24'0 0.0
2019-Sep-20 18:00N 38°40' W 009°24'0 0.0
2019-Sep-20 17:30N 38°40' W 009°24'0 0.0
2019-Sep-20 17:00N 38°40' W 009°24'0 0.0
2019-Sep-20 16:30N 38°40' W 009°24'0 0.0
2019-Sep-20 16:00N 38°40' W 009°24'0 0.0
2019-Sep-20 15:30N 38°40' W 009°24'0 0.0
2019-Sep-20 15:00N 38°40' W 009°24'0 0.1
2019-Sep-20 14:31N 38°40' W 009°24'1 1.9
2019-Sep-20 14:00N 38°41' W 009°24'0 0.4
2019-Sep-20 13:30N 38°41' W 009°25'0 0.7
2019-Sep-20 13:00N 38°41' W 009°24'0 0.3
2019-Sep-20 12:30N 38°41' W 009°24'0 0.2
2019-Sep-20 12:00N 38°41' W 009°24'0 0.2
2019-Sep-20 11:30N 38°41' W 009°24'0 0.3
2019-Sep-20 11:00N 38°41' W 009°24'0 0.4
2019-Sep-20 10:30N 38°41' W 009°24'0 0.4
2019-Sep-20 10:00N 38°41' W 009°25'1 1.3
2019-Sep-20 09:30N 38°41' W 009°24'1 2.0
2019-Sep-20 09:00N 38°41' W 009°25'1 1.8
2019-Sep-20 08:30N 38°40' W 009°26'1 2.1
2019-Sep-20 08:00N 38°40' W 009°27'2 3.4
2019-Sep-20 07:30N 38°40' W 009°29'1 1.5
2019-Sep-20 07:00N 38°39' W 009°30'1 1.1
2019-Sep-20 06:30N 38°39' W 009°31'3 6.3
2019-Sep-20 06:00N 38°39' W 009°35'3 6.4
2019-Sep-20 05:30N 38°39' W 009°39'3 5.0
2019-Sep-20 05:00N 38°40' W 009°42'3 6.3
2019-Sep-20 04:30N 38°44' W 009°42'3 6.0
2019-Sep-20 04:00N 38°47' W 009°43'3 5.9
2019-Sep-20 03:30N 38°50' W 009°43'3 6.1
2019-Sep-20 03:00N 38°53' W 009°43'3 6.0
2019-Sep-20 02:30N 38°56' W 009°42'3 5.8
2019-Sep-20 02:00N 38°58' W 009°42'3 6.2
2019-Sep-20 01:30N 39°02' W 009°41'3 6.3
2019-Sep-20 01:00N 39°05' W 009°41'3 6.6
2019-Sep-20 00:30N 39°08' W 009°42'4 7.7
2019-Sep-20 00:00N 39°12' W 009°42'4 7.4
2019-Sep-19 23:30N 39°15' W 009°43'4 7.0
2019-Sep-19 23:00N 39°19' W 009°43'3 6.4
2019-Sep-19 22:29N 39°22' W 009°43'  
2019-Sep-15 20:32N 45°59' W 007°28'0 8.3
2019-Sep-15 20:30N 45°60' W 007°28'8 8.2
2019-Sep-15 19:28N 46°08' W 007°27'20 7.6
2019-Sep-15 16:52N 46°27' W 007°21'23 7.1
2019-Sep-15 13:36N 46°44' W 006°57'18 7.3
2019-Sep-15 11:07N 46°55' W 006°37'1 6.8
2019-Sep-15 10:58N 46°55' W 006°35'4 6.9
2019-Sep-15 10:26N 46°58' W 006°31'4 7.6
2019-Sep-15 09:55N 46°60' W 006°26'3 6.4
2019-Sep-15 09:30N 47°01' W 006°23'3 5.6
2019-Sep-15 08:59N 47°02' W 006°19'3 5.9
2019-Sep-15 08:30N 47°04' W 006°16'3 5.7
2019-Sep-15 08:00N 47°06' W 006°12'3 6.1
2019-Sep-15 07:29N 47°08' W 006°09'3 5.6
2019-Sep-15 07:00N 47°10' W 006°06'3 6.5
2019-Sep-15 06:30N 47°13' W 006°07'3 6.8
2019-Sep-15 06:00N 47°17' W 006°07'3 6.5
2019-Sep-15 05:30N 47°20' W 006°07'3 5.9
2019-Sep-15 05:00N 47°23' W 006°07'2 5.0
2019-Sep-15 04:30N 47°25' W 006°08'2 4.0
2019-Sep-15 04:00N 47°27' W 006°08'2 3.9
2019-Sep-15 03:30N 47°29' W 006°08'2 3.8
2019-Sep-15 03:00N 47°31' W 006°08'2 3.9
2019-Sep-15 02:30N 47°33' W 006°08'2 4.4
2019-Sep-15 02:00N 47°35' W 006°08'3 5.1
2019-Sep-15 01:30N 47°38' W 006°08'2 5.0
2019-Sep-15 01:00N 47°40' W 006°08'2 4.9
2019-Sep-15 00:30N 47°43' W 006°08'3 5.4
2019-Sep-15 00:00N 47°45' W 006°07'2 4.9
2019-Sep-14 23:30N 47°47' W 006°05'3 6.2
2019-Sep-14 23:00N 47°48' W 006°01'3 6.9
2019-Sep-14 22:30N 47°50' W 005°56'4 7.1
2019-Sep-14 22:00N 47°52' W 005°52'4 7.2
2019-Sep-14 21:30N 47°54' W 005°48'4 7.2
2019-Sep-14 21:00N 47°57' W 005°43'4 7.4
2019-Sep-14 20:30N 47°59' W 005°39'4 7.1
2019-Sep-14 20:00N 48°01' W 005°35'4 6.8
2019-Sep-14 19:26N 48°04' W 005°31'3 6.6
2019-Sep-14 18:58N 48°06' W 005°27'3 5.8
2019-Sep-14 18:30N 48°08' W 005°25'3 6.1
2019-Sep-14 18:00N 48°11' W 005°24'3 6.4
2019-Sep-14 17:30N 48°14' W 005°23'3 5.2
2019-Sep-14 17:00N 48°17' W 005°22'2 4.8
2019-Sep-14 16:30N 48°19' W 005°21'3 5.1
2019-Sep-14 16:00N 48°21' W 005°20'2 4.7
2019-Sep-14 15:30N 48°23' W 005°18'2 3.7
2019-Sep-14 15:00N 48°25' W 005°17'1 3.0
2019-Sep-14 14:30N 48°26' W 005°16'1 2.6
2019-Sep-14 14:00N 48°28' W 005°15'2 3.5
2019-Sep-14 13:30N 48°29' W 005°14'2 4.3
2019-Sep-14 13:00N 48°31' W 005°13'3 5.1
2019-Sep-14 12:30N 48°33' W 005°12'3 5.9
2019-Sep-14 12:00N 48°36' W 005°10'3 6.1
2019-Sep-14 11:30N 48°39' W 005°08'3 6.4
2019-Sep-14 11:00N 48°42' W 005°05'3 5.9
2019-Sep-14 10:30N 48°43' W 005°01'3 6.0
2019-Sep-14 10:00N 48°43' W 004°56'3 6.1
2019-Sep-14 09:30N 48°43' W 004°52'3 5.7
2019-Sep-14 09:00N 48°44' W 004°48'3 5.7
2019-Sep-14 08:30N 48°44' W 004°43'3 5.8
2019-Sep-14 08:00N 48°45' W 004°39'3 5.5
2019-Sep-14 07:30N 48°45' W 004°35'3 5.2
2019-Sep-14 07:00N 48°45' W 004°31'3 5.8
2019-Sep-14 06:30N 48°48' W 004°29'3 5.4
2019-Sep-14 06:00N 48°51' W 004°28'3 5.2
2019-Sep-14 05:30N 48°53' W 004°27'3 5.1
2019-Sep-14 05:00N 48°56' W 004°27'3 5.1
2019-Sep-14 04:29N 48°58' W 004°26'4 5.3
2019-Sep-14 03:48N 49°02' W 004°26'2 5.3
2019-Sep-14 03:29N 49°04' W 004°26'3 5.1
2019-Sep-14 02:58N 49°06' W 004°25'3 5.2
2019-Sep-14 02:28N 49°09' W 004°25'3 5.8
2019-Sep-14 02:00N 49°11' W 004°24'3 5.2
2019-Sep-14 01:30N 49°14' W 004°23'3 4.9
2019-Sep-14 00:56N 49°15' W 004°19'3 5.3
2019-Sep-14 00:22N 49°15' W 004°15'3 5.3
2019-Sep-13 23:43N 49°16' W 004°09'3 5.4
2019-Sep-13 23:12N 49°16' W 004°05'11 5.9
2019-Sep-13 21:23N 49°18' W 003°49'3 6.2
2019-Sep-13 20:58N 49°19' W 003°45'3 5.9
2019-Sep-13 20:24N 49°20' W 003°40'3 6.1
2019-Sep-13 19:59N 49°20' W 003°36'6 6.0
2019-Sep-13 18:59N 49°21' W 003°27'3 5.6
2019-Sep-13 18:30N 49°22' W 003°23'4 4.9
2019-Sep-13 17:43N 49°22' W 003°17'1 4.4
2019-Sep-13 17:28N 49°23' W 003°16'2 4.0
2019-Sep-13 16:58N 49°23' W 003°13'2 3.9
2019-Sep-13 16:30N 49°24' W 003°10'2 3.8
2019-Sep-13 15:58N 49°25' W 003°07'3 4.3
2019-Sep-13 15:14N 49°27' W 003°03'2 4.9
2019-Sep-13 14:44N 49°28' W 002°60'1 5.4
2019-Sep-13 14:29N 49°28' W 002°58'4 5.8
2019-Sep-13 13:47N 49°30' W 002°53'2 6.5
2019-Sep-13 13:30N 49°31' W 002°50'11 7.7
2019-Sep-13 12:06N 49°38' W 002°37'3 7.8
2019-Sep-13 11:45N 49°39' W 002°33'7 7.7
2019-Sep-13 10:47N 49°44' W 002°24'8 3.4
2019-Sep-13 08:26N 49°44' W 002°12'0 0.0
2019-Sep-13 03:29N 49°44' W 002°12'0 0.0
2019-Sep-13 01:44N 49°44' W 002°12'0 0.0
2019-Sep-13 01:23N 49°44' W 002°12'0 0.0
2019-Sep-13 00:56N 49°44' W 002°12'0 0.0
2019-Sep-13 00:26N 49°44' W 002°12'0 0.0
2019-Sep-12 23:50N 49°44' W 002°12'0 0.0
2019-Sep-12 23:20N 49°44' W 002°12'0 0.0
2019-Sep-12 22:59N 49°44' W 002°12'0 0.0
2019-Sep-12 22:26N 49°44' W 002°12'0 0.0
2019-Sep-12 19:53N 49°44' W 002°12'0 0.0
2019-Sep-12 15:38N 49°44' W 002°12'0 0.0
2019-Sep-12 15:02N 49°44' W 002°12'0 0.0
2019-Sep-12 12:53N 49°44' W 002°12'0 0.0
2019-Sep-12 08:38N 49°44' W 002°12'0 0.0
2019-Sep-12 05:59N 49°44' W 002°12'  
Track history (hours):
 
Tides and Currents Weather Stations Pressure Air Temp Water Temp Dewpoint Dewpoint Depression Visibility Wind Speed Wind Dir Waves Ship Positions

Gulden Leeuw

Last reported at 2019-Sep-22 01:59 UTC. Time now 2019-Sep-22 02:15 UTC.
Position N 38°42' W 009°10'.

Length 57 m; draft 4.2 m.

Type: Sailing vessel. MMSI: 246709000.

Date/timePositionNaut miles runAvg speedWind from/ knotsBaromVisibWave heightAir tempDewpointWater temp
2019-Sep-22 01:59N 38°42' W 009°10'0 0.0
2019-Sep-22 01:29N 38°42' W 009°10'0 0.0
2019-Sep-22 00:59N 38°42' W 009°10'0 0.0
2019-Sep-22 00:29N 38°42' W 009°10'0 0.0
2019-Sep-21 23:59N 38°42' W 009°10'0 0.0
2019-Sep-21 23:29N 38°42' W 009°10'0 0.0
2019-Sep-21 22:59N 38°42' W 009°10'0 0.0
2019-Sep-21 22:29N 38°42' W 009°10'0 0.0
2019-Sep-21 21:59N 38°42' W 009°10'0 0.0
2019-Sep-21 21:29N 38°42' W 009°10'0 0.0
2019-Sep-21 20:59N 38°42' W 009°10'0 0.0
2019-Sep-21 20:29N 38°42' W 009°10'0 0.0
2019-Sep-21 19:59N 38°42' W 009°10'0 0.0
2019-Sep-21 19:29N 38°42' W 009°10'0 0.0
2019-Sep-21 18:53N 38°42' W 009°10'0 0.0
2019-Sep-21 18:29N 38°42' W 009°10'0 0.0
2019-Sep-21 17:59N 38°42' W 009°10'0 0.0
2019-Sep-21 17:29N 38°42' W 009°10'0 0.0
2019-Sep-21 16:59N 38°42' W 009°10'0 0.0
2019-Sep-21 16:29N 38°42' W 009°10'0 0.0
2019-Sep-21 15:59N 38°42' W 009°10'0 0.0
2019-Sep-21 15:29N 38°42' W 009°10'0 0.0
2019-Sep-21 14:59N 38°42' W 009°10'0 0.0
2019-Sep-21 14:30N 38°42' W 009°10'0 0.0
2019-Sep-21 14:00N 38°42' W 009°10'0 0.0
2019-Sep-21 13:30N 38°42' W 009°10'0 0.0
2019-Sep-21 13:00N 38°42' W 009°10'1 1.8
2019-Sep-21 12:30N 38°41' W 009°10'3 6.0
2019-Sep-21 12:00N 38°41' W 009°14'3 6.1
2019-Sep-21 11:30N 38°41' W 009°18'3 6.1
2019-Sep-21 11:00N 38°39' W 009°21'3 5.5
2019-Sep-21 10:30N 38°38' W 009°24'2 4.6
2019-Sep-21 10:00N 38°39' W 009°27'1 2.4
2019-Sep-21 09:30N 38°39' W 009°26'1 2.7
2019-Sep-21 09:00N 38°40' W 009°24'1 1.2
2019-Sep-21 08:30N 38°40' W 009°24'0 0.1
2019-Sep-21 08:00N 38°40' W 009°24'0 0.0
2019-Sep-21 07:30N 38°40' W 009°24'0 0.0
2019-Sep-21 07:00N 38°40' W 009°24'0 0.0
2019-Sep-21 06:30N 38°40' W 009°24'0 0.0
2019-Sep-21 06:00N 38°40' W 009°24'0 0.0
2019-Sep-21 05:30N 38°40' W 009°24'0 0.0
2019-Sep-21 05:00N 38°40' W 009°24'0 0.0
2019-Sep-21 04:27N 38°40' W 009°24'0 0.0
2019-Sep-21 04:00N 38°40' W 009°24'0 0.0
2019-Sep-21 03:30N 38°40' W 009°24'0 0.0
2019-Sep-21 03:00N 38°40' W 009°24'0 0.0
2019-Sep-21 02:30N 38°40' W 009°24'0 0.0
2019-Sep-21 02:00N 38°40' W 009°24'0 0.0
2019-Sep-21 01:30N 38°40' W 009°24'0 0.0
2019-Sep-21 01:00N 38°40' W 009°24'0 0.0
2019-Sep-21 00:30N 38°40' W 009°24'0 0.0
2019-Sep-21 00:00N 38°40' W 009°24'0 0.0
2019-Sep-20 23:30N 38°40' W 009°24'0 0.0
2019-Sep-20 23:00N 38°40' W 009°24'0 0.0
2019-Sep-20 22:30N 38°40' W 009°24'0 0.0
2019-Sep-20 22:00N 38°40' W 009°24'0 0.0
2019-Sep-20 21:30N 38°40' W 009°24'0 0.0
2019-Sep-20 21:00N 38°40' W 009°24'0 0.0
2019-Sep-20 20:30N 38°40' W 009°24'0 0.0
2019-Sep-20 20:00N 38°40' W 009°24'0 0.0
2019-Sep-20 19:30N 38°40' W 009°24'0 0.0
2019-Sep-20 19:00N 38°40' W 009°24'0 0.0
2019-Sep-20 18:30N 38°40' W 009°24'0 0.0
2019-Sep-20 18:00N 38°40' W 009°24'0 0.0
2019-Sep-20 17:30N 38°40' W 009°24'0 0.0
2019-Sep-20 17:00N 38°40' W 009°24'0 0.0
2019-Sep-20 16:30N 38°40' W 009°24'0 0.0
2019-Sep-20 16:00N 38°40' W 009°24'0 0.0
2019-Sep-20 15:30N 38°40' W 009°24'0 0.0
2019-Sep-20 15:00N 38°40' W 009°24'0 0.1
2019-Sep-20 14:31N 38°40' W 009°24'1 1.9
2019-Sep-20 14:00N 38°41' W 009°24'0 0.4
2019-Sep-20 13:30N 38°41' W 009°25'0 0.7
2019-Sep-20 13:00N 38°41' W 009°24'0 0.3
2019-Sep-20 12:30N 38°41' W 009°24'0 0.2
2019-Sep-20 12:00N 38°41' W 009°24'0 0.2
2019-Sep-20 11:30N 38°41' W 009°24'0 0.3
2019-Sep-20 11:00N 38°41' W 009°24'0 0.4
2019-Sep-20 10:30N 38°41' W 009°24'0 0.4
2019-Sep-20 10:00N 38°41' W 009°25'1 1.3
2019-Sep-20 09:30N 38°41' W 009°24'1 2.0
2019-Sep-20 09:00N 38°41' W 009°25'1 1.8
2019-Sep-20 08:30N 38°40' W 009°26'1 2.1
2019-Sep-20 08:00N 38°40' W 009°27'2 3.4
2019-Sep-20 07:30N 38°40' W 009°29'1 1.5
2019-Sep-20 07:00N 38°39' W 009°30'1 1.1
2019-Sep-20 06:30N 38°39' W 009°31'3 6.3
2019-Sep-20 06:00N 38°39' W 009°35'3 6.4
2019-Sep-20 05:30N 38°39' W 009°39'3 5.0
2019-Sep-20 05:00N 38°40' W 009°42'3 6.3
2019-Sep-20 04:30N 38°44' W 009°42'3 6.0
2019-Sep-20 04:00N 38°47' W 009°43'3 5.9
2019-Sep-20 03:30N 38°50' W 009°43'3 6.1
2019-Sep-20 03:00N 38°53' W 009°43'3 6.0
2019-Sep-20 02:30N 38°56' W 009°42'3 5.8
2019-Sep-20 02:00N 38°58' W 009°42'3 6.2
2019-Sep-20 01:30N 39°02' W 009°41'3 6.3
2019-Sep-20 01:00N 39°05' W 009°41'3 6.6
2019-Sep-20 00:30N 39°08' W 009°42'4 7.7
2019-Sep-20 00:00N 39°12' W 009°42'4 7.4
2019-Sep-19 23:30N 39°15' W 009°43'4 7.0
2019-Sep-19 23:00N 39°19' W 009°43'3 6.4
2019-Sep-19 22:29N 39°22' W 009°43'  
2019-Sep-15 20:32N 45°59' W 007°28'0 8.3
2019-Sep-15 20:30N 45°60' W 007°28'8 8.2
2019-Sep-15 19:28N 46°08' W 007°27'20 7.6
2019-Sep-15 16:52N 46°27' W 007°21'23 7.1
2019-Sep-15 13:36N 46°44' W 006°57'18 7.3
2019-Sep-15 11:07N 46°55' W 006°37'1 6.8
2019-Sep-15 10:58N 46°55' W 006°35'4 6.9
2019-Sep-15 10:26N 46°58' W 006°31'4 7.6
2019-Sep-15 09:55N 46°60' W 006°26'3 6.4
2019-Sep-15 09:30N 47°01' W 006°23'3 5.6
2019-Sep-15 08:59N 47°02' W 006°19'3 5.9
2019-Sep-15 08:30N 47°04' W 006°16'3 5.7
2019-Sep-15 08:00N 47°06' W 006°12'3 6.1
2019-Sep-15 07:29N 47°08' W 006°09'3 5.6
2019-Sep-15 07:00N 47°10' W 006°06'3 6.5
2019-Sep-15 06:30N 47°13' W 006°07'3 6.8
2019-Sep-15 06:00N 47°17' W 006°07'3 6.5
2019-Sep-15 05:30N 47°20' W 006°07'3 5.9
2019-Sep-15 05:00N 47°23' W 006°07'2 5.0
2019-Sep-15 04:30N 47°25' W 006°08'2 4.0
2019-Sep-15 04:00N 47°27' W 006°08'2 3.9
2019-Sep-15 03:30N 47°29' W 006°08'2 3.8
2019-Sep-15 03:00N 47°31' W 006°08'2 3.9
2019-Sep-15 02:30N 47°33' W 006°08'2 4.4
2019-Sep-15 02:00N 47°35' W 006°08'3 5.1
2019-Sep-15 01:30N 47°38' W 006°08'2 5.0
2019-Sep-15 01:00N 47°40' W 006°08'2 4.9
2019-Sep-15 00:30N 47°43' W 006°08'3 5.4
2019-Sep-15 00:00N 47°45' W 006°07'2 4.9
2019-Sep-14 23:30N 47°47' W 006°05'3 6.2
2019-Sep-14 23:00N 47°48' W 006°01'3 6.9
2019-Sep-14 22:30N 47°50' W 005°56'4 7.1
2019-Sep-14 22:00N 47°52' W 005°52'4 7.2
2019-Sep-14 21:30N 47°54' W 005°48'4 7.2
2019-Sep-14 21:00N 47°57' W 005°43'4 7.4
2019-Sep-14 20:30N 47°59' W 005°39'4 7.1
2019-Sep-14 20:00N 48°01' W 005°35'4 6.8
2019-Sep-14 19:26N 48°04' W 005°31'3 6.6
2019-Sep-14 18:58N 48°06' W 005°27'3 5.8
2019-Sep-14 18:30N 48°08' W 005°25'3 6.1
2019-Sep-14 18:00N 48°11' W 005°24'3 6.4
2019-Sep-14 17:30N 48°14' W 005°23'3 5.2
2019-Sep-14 17:00N 48°17' W 005°22'2 4.8
2019-Sep-14 16:30N 48°19' W 005°21'3 5.1
2019-Sep-14 16:00N 48°21' W 005°20'2 4.7
2019-Sep-14 15:30N 48°23' W 005°18'2 3.7
2019-Sep-14 15:00N 48°25' W 005°17'1 3.0
2019-Sep-14 14:30N 48°26' W 005°16'1 2.6
2019-Sep-14 14:00N 48°28' W 005°15'2 3.5
2019-Sep-14 13:30N 48°29' W 005°14'2 4.3
2019-Sep-14 13:00N 48°31' W 005°13'3 5.1
2019-Sep-14 12:30N 48°33' W 005°12'3 5.9
2019-Sep-14 12:00N 48°36' W 005°10'3 6.1
2019-Sep-14 11:30N 48°39' W 005°08'3 6.4
2019-Sep-14 11:00N 48°42' W 005°05'3 5.9
2019-Sep-14 10:30N 48°43' W 005°01'3 6.0
2019-Sep-14 10:00N 48°43' W 004°56'3 6.1
2019-Sep-14 09:30N 48°43' W 004°52'3 5.7
2019-Sep-14 09:00N 48°44' W 004°48'3 5.7
2019-Sep-14 08:30N 48°44' W 004°43'3 5.8
2019-Sep-14 08:00N 48°45' W 004°39'3 5.5
2019-Sep-14 07:30N 48°45' W 004°35'3 5.2
2019-Sep-14 07:00N 48°45' W 004°31'3 5.8
2019-Sep-14 06:30N 48°48' W 004°29'3 5.4
2019-Sep-14 06:00N 48°51' W 004°28'3 5.2
2019-Sep-14 05:30N 48°53' W 004°27'3 5.1
2019-Sep-14 05:00N 48°56' W 004°27'3 5.1
2019-Sep-14 04:29N 48°58' W 004°26'4 5.3
2019-Sep-14 03:48N 49°02' W 004°26'2 5.3
2019-Sep-14 03:29N 49°04' W 004°26'3 5.1
2019-Sep-14 02:58N 49°06' W 004°25'3 5.2
2019-Sep-14 02:28N 49°09' W 004°25'3 5.8
2019-Sep-14 02:00N 49°11' W 004°24'3 5.2
2019-Sep-14 01:30N 49°14' W 004°23'3 4.9
2019-Sep-14 00:56N 49°15' W 004°19'3 5.3
2019-Sep-14 00:22N 49°15' W 004°15'3 5.3
2019-Sep-13 23:43N 49°16' W 004°09'3 5.4
2019-Sep-13 23:12N 49°16' W 004°05'11 5.9
2019-Sep-13 21:23N 49°18' W 003°49'3 6.2
2019-Sep-13 20:58N 49°19' W 003°45'3 5.9
2019-Sep-13 20:24N 49°20' W 003°40'3 6.1
2019-Sep-13 19:59N 49°20' W 003°36'6 6.0
2019-Sep-13 18:59N 49°21' W 003°27'3 5.6
2019-Sep-13 18:30N 49°22' W 003°23'4 4.9
2019-Sep-13 17:43N 49°22' W 003°17'1 4.4
2019-Sep-13 17:28N 49°23' W 003°16'2 4.0
2019-Sep-13 16:58N 49°23' W 003°13'2 3.9
2019-Sep-13 16:30N 49°24' W 003°10'2 3.8
2019-Sep-13 15:58N 49°25' W 003°07'3 4.3
2019-Sep-13 15:14N 49°27' W 003°03'2 4.9
2019-Sep-13 14:44N 49°28' W 002°60'1 5.4
2019-Sep-13 14:29N 49°28' W 002°58'4 5.8
2019-Sep-13 13:47N 49°30' W 002°53'2 6.5
2019-Sep-13 13:30N 49°31' W 002°50'11 7.7
2019-Sep-13 12:06N 49°38' W 002°37'3 7.8
2019-Sep-13 11:45N 49°39' W 002°33'7 7.7
2019-Sep-13 10:47N 49°44' W 002°24'8 3.4
2019-Sep-13 08:26N 49°44' W 002°12'0 0.0
2019-Sep-13 03:29N 49°44' W 002°12'0 0.0
2019-Sep-13 01:44N 49°44' W 002°12'0 0.0
2019-Sep-13 01:23N 49°44' W 002°12'0 0.0
2019-Sep-13 00:56N 49°44' W 002°12'0 0.0
2019-Sep-13 00:26N 49°44' W 002°12'0 0.0
2019-Sep-12 23:50N 49°44' W 002°12'0 0.0
2019-Sep-12 23:20N 49°44' W 002°12'0 0.0
2019-Sep-12 22:59N 49°44' W 002°12'0 0.0
2019-Sep-12 22:26N 49°44' W 002°12'0 0.0
2019-Sep-12 19:53N 49°44' W 002°12'0 0.0
2019-Sep-12 15:38N 49°44' W 002°12'0 0.0
2019-Sep-12 15:02N 49°44' W 002°12'0 0.0
2019-Sep-12 12:53N 49°44' W 002°12'0 0.0
2019-Sep-12 08:38N 49°44' W 002°12'0 0.0
2019-Sep-12 05:59N 49°44' W 002°12'  

Dump ship's entire track history